Latest Weather Observations for Port Augusta

IDS60801

Issued at 9:41 am CST Monday 16 September 2019 (issued every 10 minutes, with the page automatically refreshed every 10 minutes)

About weather observations | Map of weather stations | Latest weather observations for SA | Other Formats
Station Details ID: 018201 Name: PORT AUGUSTA AERO Lat: -32.51 Lon: 137.72 Height: 13.97 m
Data from the previous 72 hours. | See also: Recent months at Port Augusta
Date/Time
CST
Temp
°C
App
Temp
°C
Dew
Point
°C
Rel
Hum
%
Delta-T
°C
Wind Press
QNH
hPa
Press
MSL
hPa
Rain since
9am
mm
Dir  Spd
km/h
Gust
km/h
Spd
kts
Gust
kts
16/09:30am 16.0 8.9 9.7 66 3.3 SSE 37 48 20 26 1020.4 1020.4 0.0
16/09:00am 14.9 7.5 9.7 71 2.7 S 39 52 21 28 1020.9 1020.9 0.0
16/08:30am 14.3 6.8 9.3 72 2.5 S 39 48 21 26 1019.8 1019.7 0.0
16/08:15am 14.2 7.4 9.2 72 2.5 S 35 44 19 24 1020.8 1020.8 0.0
16/08:05am 14.3 7.8 9.1 71 2.6 S 33 52 18 28 1021.0 1021.0 0.0
16/08:00am 14.6 7.7 9.0 69 2.9 S 35 43 19 23 1020.6 1020.6 0.0
16/07:40am 14.4 6.7 8.6 68 2.9 SSE 39 46 21 25 1019.3 1019.2 0.0
16/07:30am 14.5 8.5 8.7 68 2.9 S 30 41 16 22 1020.0 1020.0 0.0
16/07:00am 14.2 8.5 9.8 75 2.3 S 30 37 16 20 1019.6 1019.5 0.0
16/06:30am 13.8 7.7 9.6 76 2.1 S 32 43 17 23 1019.1 1019.0 0.0
16/06:00am 13.9 7.8 10.3 79 1.9 SSE 33 43 18 23 1018.3 1018.2 0.0
16/05:30am 14.2 8.2 10.2 77 2.1 SSE 32 41 17 22 1018.9 1018.8 0.0
16/05:00am 14.5 8.5 10.9 79 1.9 S 33 43 18 23 1018.1 1018.0 0.0
16/04:30am 14.6 8.3 11.2 80 1.8 SSE 35 43 19 23 1017.5 1017.4 0.0
16/04:00am 15.2 10.1 12.0 81 1.7 SSE 30 43 16 23 1017.6 1017.5 0.0
16/03:30am 15.2 9.5 11.8 80 1.8 SSE 33 44 18 24 1017.4 1017.3 0.0
16/03:00am 14.9 9.4 11.9 82 1.6 SSE 32 43 17 23 1017.1 1017.0 0.0
16/02:55am 14.9 10.5 11.7 81 1.7 SSE 26 43 14 23 1017.2 1017.1 0.0
16/02:30am 15.3 11.6 11.5 78 2.0 SSE 22 35 12 19 1017.0 1016.9 0.0
16/02:00am 16.7 13.3 9.1 61 3.9 SSE 17 24 9 13 1017.0 1016.9 0.0
16/01:30am 16.6 12.9 9.5 63 3.7 SE 19 26 10 14 1016.9 1016.8 0.0
16/01:00am 18.1 13.6 8.7 54 4.9 SE 22 33 12 18 1016.8 1016.7 0.0
16/12:56am 18.5 14.6 8.5 52 5.2 SE 19 33 10 18 1016.8 1016.7 0.0
16/12:30am 18.3 16.1 8.0 51 5.3 SE 9 15 5 8 1016.9 1016.8 0.0
16/12:00am 19.1 16.4 7.5 47 5.9 SSW 11 17 6 9 1016.8 1016.7 0.0
 
Date/Time
CST
Temp
°C
App
Temp
°C
Dew
Point
°C
Rel
Hum
%
Delta-T
°C
Wind Press
QNH
hPa
Press
MSL
hPa
Rain since
9am
mm
Dir  Spd
km/h
Gust
km/h
Spd
kts
Gust
kts
15/11:30pm 18.1 14.3 9.2 56 4.6 SE 19 24 10 13 1016.3 1016.2 0.0
15/11:00pm 18.5 13.5 9.6 56 4.7 SE 26 39 14 21 1016.3 1016.2 0.0
15/10:30pm 19.3 14.4 8.3 49 5.7 SE 24 35 13 19 1016.4 1016.3 0.0
15/10:13pm 21.8 15.8 6.9 38 7.6 ESE 28 39 15 21 1016.2 1016.1 0.0
15/10:00pm 21.0 17.2 -0.9 23 9.6 SSW 9 15 5 8 1015.8 1015.7 0.0
15/09:30pm 20.5 17.2 -1.3 23 9.4 WNW 6 7 3 4 1015.7 1015.6 0.0
15/09:00pm 21.4 17.6 -0.6 23 9.7 N 9 11 5 6 1015.7 1015.6 0.0
15/08:30pm 19.9 17.4 -0.7 25 9.0 NW 2 6 1 3 1015.8 1015.7 0.0
15/08:00pm 21.9 18.8 -0.1 23 9.9 NW 6 7 3 4 1015.9 1015.8 0.0
15/07:30pm 22.2 18.8 -0.5 22 10.1 N 7 13 4 7 1015.8 1015.7 0.0
15/07:00pm 24.5 20.4 0.1 20 11.2 NNE 11 13 6 7 1015.6 1015.5 0.0
15/06:30pm 26.7 22.7 0.4 18 12.3 NNE 11 13 6 7 1015.4 1015.3 0.0
15/06:00pm 28.8 24.4 0.5 16 13.5 NNE 13 17 7 9 1015.1 1015.0 0.0
15/05:30pm 29.8 25.3 -0.5 14 14.3 NE 13 20 7 11 1015.2 1015.1 0.0
15/05:10pm 30.2 22.5 -0.2 14 14.5 W 30 48 16 26 1016.6 1016.5 0.0
15/05:00pm 30.5 22.3 -1.0 13 14.8 W 32 48 17 26 1016.7 1016.6 0.0
15/04:49pm 30.8 23.4 -0.8 13 15.0 WNW 28 59 15 32 1016.6 1016.5 0.0
15/04:47pm 30.8 23.8 -0.8 13 15.0 WNW 26 59 14 32 1016.5 1016.4 0.0
15/04:30pm 31.2 24.3 -2.7 11 15.6 WNW 24 33 13 18 1016.2 1016.1 0.0
15/04:00pm 31.6 24.4 -2.4 11 15.8 NNW 26 35 14 19 1015.4 1015.3 0.0
15/03:30pm 32.5 25.0 -1.7 11 16.1 NW 28 39 15 21 1015.2 1015.1 0.0
15/03:00pm 32.4 24.5 -1.8 11 16.1 NW 30 43 16 23 1015.6 1015.5 0.0
15/02:30pm 32.0 23.8 -0.9 12 15.7 NNW 32 43 17 23 1016.0 1015.9 0.0
15/02:00pm 33.8 26.0 -0.7 11 16.7 NNW 30 44 16 24 1016.4 1016.3 0.0
15/01:30pm 31.9 23.7 -1.0 12 15.6 NNW 32 48 17 26 1017.1 1017.0 0.0
15/01:22pm 32.1 24.3 -0.9 12 15.7 NNW 30 48 16 26 1017.2 1017.1 0.0
15/01:00pm 31.5 23.4 -0.2 13 15.2 NNW 32 44 17 24 1018.0 1017.9 0.0
15/12:30pm 32.3 24.3 0.4 13 15.5 NNW 32 46 17 25 1018.3 1018.2 0.0
15/12:01pm 31.8 24.3 1.0 14 15.1 NNW 30 48 16 26 1019.1 1019.0 0.0
15/12:00pm 31.9 23.9 0.1 13 15.4 NNW 32 48 17 26 1019.2 1019.1 0.0
15/11:30am 30.2 23.1 1.6 16 14.0 NNW 28 37 15 20 1019.5 1019.4 0.0
15/11:00am 29.2 21.8 1.7 17 13.5 N 30 39 16 21 1019.9 1019.8 0.0
15/10:30am 28.1 20.7 1.6 18 12.8 N 30 39 16 21 1020.1 1020.1 0.0
15/10:00am 26.3 19.2 1.6 20 11.8 NNW 28 37 15 20 1020.8 1020.8 0.0
15/09:30am 25.7 18.3 1.8 21 11.4 N 30 37 16 20 1020.7 1020.7 0.0
15/09:00am 23.8 16.2 2.6 25 10.1 NNW 32 39 17 21 1020.9 1020.9 0.0
15/08:30am 22.9 16.8 2.9 27 9.5 N 24 33 13 18 1021.0 1021.0 0.0
15/08:00am 21.8 17.5 3.0 29 8.9 N 15 26 8 14 1021.1 1021.1 0.0
15/07:30am 20.1 16.4 2.5 31 8.1 NW 11 15 6 8 1021.2 1021.2 0.0
15/07:28am 20.0 16.3 2.4 31 8.2 NW 11 15 6 8 1021.2 1021.2 0.0
15/07:00am 15.0 11.3 2.5 43 5.6 W 11 13 6 7 1020.9 1020.9 0.0
15/06:30am 14.4 10.7 2.6 45 5.2 W 11 13 6 7 1020.8 1020.8 0.0
15/06:00am 14.2 10.5 2.5 45 5.2 WNW 11 13 6 7 1020.4 1020.4 0.0
15/05:30am 14.3 11.0 2.2 44 5.3 W 9 13 5 7 1020.3 1020.3 0.0
15/05:00am 15.3 12.0 2.5 42 5.7 W 9 13 5 7 1020.1 1020.1 0.0
15/04:30am 16.4 13.1 2.4 39 6.3 NW 9 13 5 7 1019.9 1019.8 0.0
15/04:00am 18.2 14.1 2.5 35 7.2 NNW 13 15 7 8 1019.9 1019.8 0.0
15/03:30am 19.0 14.2 2.8 34 7.5 N 17 20 9 11 1020.0 1020.0 0.0
15/03:00am 19.9 15.3 3.6 34 7.7 NNW 17 19 9 10 1020.0 1020.0 0.0
15/02:30am 19.8 15.9 3.5 34 7.7 NW 13 17 7 9 1020.1 1020.1 0.0
15/02:00am 17.9 14.6 2.6 36 7.0 WNW 9 13 5 7 1020.5 1020.5 0.0
15/01:30am 17.8 13.8 2.9 37 6.8 W 13 13 7 7 1020.7 1020.7 0.0
15/01:00am 15.9 12.1 1.6 38 6.3 WSW 11 13 6 7 1020.9 1020.9 0.0
15/12:30am 17.2 13.5 2.4 37 6.7 WNW 11 13 6 7 1021.0 1021.0 0.0
15/12:00am 15.2 12.0 1.0 38 6.1 W 7 13 4 7 1021.3 1021.3 0.0
 
Date/Time
CST
Temp
°C
App
Temp
°C
Dew
Point
°C
Rel
Hum
%
Delta-T
°C
Wind Press
QNH
hPa
Press
MSL
hPa
Rain since
9am
mm
Dir  Spd
km/h
Gust
km/h
Spd
kts
Gust
kts
14/11:30pm 16.4 13.4 1.7 37 6.5 W 7 9 4 5 1021.2 1021.2 0.0
14/11:00pm 16.8 12.9 1.3 35 6.8 WSW 11 13 6 7 1021.7 1021.7 0.0
14/10:30pm 17.2 13.4 1.6 35 6.9 WSW 11 13 6 7 1021.9 1021.9 0.0
14/10:00pm 17.3 14.2 1.3 34 7.1 W 7 11 4 6 1022.1 1022.1 0.0
14/09:30pm 19.2 16.4 2.1 32 7.8 SW 6 9 3 5 1022.3 1022.3 0.0
14/09:00pm 18.7 15.7 1.7 32 7.7 W 7 11 4 6 1022.4 1022.4 0.0
14/08:30pm 18.8 15.7 1.3 31 7.8 W 7 9 4 5 1022.3 1022.3 0.0
14/08:00pm 21.0 17.0 2.8 30 8.6 NNE 13 15 7 8 1022.2 1022.2 0.0
14/07:30pm 21.9 17.9 2.6 28 9.1 NNE 13 15 7 8 1022.0 1022.0 0.0
14/07:00pm 23.2 19.1 2.1 25 10.0 NE 13 15 7 8 1021.9 1021.9 0.0
14/06:30pm 25.3 21.9 2.1 22 11.1 NNE 9 11 5 6 1021.8 1021.8 0.0
14/06:00pm 28.1 24.8 2.3 19 12.6 NNW 9 13 5 7 1021.7 1021.7 0.0
14/05:30pm 29.9 25.6 3.0 18 13.5 NW 15 19 8 10 1021.6 1021.6 0.0
14/05:00pm 30.7 27.5 2.9 17 14.0 WNW 9 15 5 8 1021.6 1021.6 0.0
14/04:30pm 31.0 26.5 2.3 16 14.3 NW 15 24 8 13 1021.4 1021.4 0.0
14/04:00pm 30.9 26.6 3.0 17 14.1 NNW 15 24 8 13 1021.4 1021.4 0.0
14/03:30pm 30.9 26.2 3.0 17 14.1 NNW 17 24 9 13 1021.4 1021.4 0.0
14/03:00pm 30.2 26.0 4.0 19 13.4 NNW 15 22 8 12 1021.7 1021.7 0.0
14/02:30pm 30.9 26.8 4.6 19 13.6 NNW 15 32 8 17 1022.1 1022.1 0.0
14/02:00pm 30.5 25.8 5.0 20 13.3 N 19 28 10 15 1022.5 1022.5 0.0
14/01:30pm 29.7 25.5 5.7 22 12.6 NNW 17 26 9 14 1023.0 1023.0 0.0
14/01:00pm 29.5 25.7 5.6 22 12.5 N 15 24 8 13 1023.5 1023.5 0.0
14/12:30pm 28.4 24.4 6.5 25 11.5 NNW 17 24 9 13 1024.1 1024.1 0.0
14/12:00pm 27.3 23.2 6.1 26 11.0 N 17 28 9 15 1024.5 1024.5 0.0
14/11:30am 26.7 22.6 6.2 27 10.6 NNW 17 26 9 14 1024.9 1024.9 0.0
14/11:00am 25.9 22.5 6.0 28 10.3 NNW 13 20 7 11 1025.4 1025.4 0.0
14/10:30am 24.6 21.1 7.3 33 9.0 NNW 15 20 8 11 1025.9 1025.9 0.0
14/10:00am 23.6 20.5 7.3 35 8.5 NNW 13 17 7 9 1026.3 1026.3 0.0
14/09:30am 21.3 18.9 7.2 40 7.2 NW 9 13 5 7 1026.3 1026.3 0.0
14/09:00am 19.8 17.9 7.5 45 6.3 NNW 7 11 4 6 1026.4 1026.4 0.0
14/08:30am 18.2 17.2 9.0 55 4.8 NNE 4 6 2 3 1026.4 1026.4 0.0
14/08:00am 16.4 15.1 9.1 62 3.8 NNE 6 7 3 4 1026.4 1026.4 0.0
14/07:30am 13.8 12.3 6.9 63 3.3 NW 4 7 2 4 1026.3 1026.3 0.0
14/07:00am 10.5 8.3 6.3 75 2.0 W 7 11 4 6 1026.2 1026.2 0.0
14/06:30am 9.9 7.7 6.3 78 1.7 WNW 7 11 4 6 1026.1 1026.1 0.0
14/06:00am 9.8 8.9 6.2 78 1.7 CALM 0 0 0 0 1025.8 1025.8 0.0
14/05:30am 10.4 9.0 7.1 80 1.6 NW 4 7 2 4 1025.7 1025.7 0.0
14/05:00am 10.4 8.4 7.3 81 1.5 NW 7 7 4 4 1025.6 1025.6 0.0
14/04:30am 11.2 8.8 6.9 75 2.0 WNW 9 11 5 6 1025.5 1025.5 0.0
14/04:00am 12.5 10.5 8.6 77 1.9 SSE 9 13 5 7 1025.4 1025.4 0.0
14/03:30am 12.4 10.4 8.7 78 1.8 S 9 15 5 8 1025.5 1025.5 0.0
14/03:00am 13.8 11.2 10.8 82 1.6 SE 15 20 8 11 1025.6 1025.6 0.0
14/02:30am 13.8 10.4 10.4 80 1.8 ESE 19 22 10 12 1026.0 1026.0 0.0
14/02:00am 13.8 10.8 10.8 82 1.6 ESE 17 22 9 12 1026.4 1026.4 0.0
14/01:30am 13.8 10.8 10.6 81 1.7 ESE 17 20 9 11 1026.8 1026.8 0.0
14/01:00am 14.4 11.6 11.2 81 1.7 ESE 17 22 9 12 1026.8 1026.8 0.0
14/12:30am 14.1 11.8 10.5 79 1.9 ESE 13 19 7 10 1027.0 1027.0 0.0
14/12:00am 14.3 11.3 10.7 79 1.9 ESE 17 20 9 11 1027.0 1027.0 0.0
 
Date/Time
CST
Temp
°C
App
Temp
°C
Dew
Point
°C
Rel
Hum
%
Delta-T
°C
Wind Press
QNH
hPa
Press
MSL
hPa
Rain since
9am
mm
Dir  Spd
km/h
Gust
km/h
Spd
kts
Gust
kts
13/11:30pm 14.7 12.2 9.7 72 2.6 ESE 13 17 7 9 1027.2 1027.2 0.0
13/11:00pm 15.1 12.4 9.0 67 3.1 SE 13 17 7 9 1027.3 1027.3 0.0
13/10:30pm 15.6 11.9 8.1 61 3.8 SE 17 24 9 13 1027.4 1027.4 0.0
13/10:00pm 15.2 12.1 5.4 52 4.7 SE 11 17 6 9 1027.5 1027.5 0.0
13/09:30pm 14.9 11.8 5.4 53 4.5 S 11 13 6 7 1027.6 1027.6 0.0
13/09:00pm 15.3 14.1 6.3 55 4.3 SSW 2 6 1 3 1027.4 1027.4 0.0
13/08:30pm 15.5 13.3 7.8 60 3.8 SSW 9 11 5 6 1027.3 1027.3 0.0
13/08:00pm 15.7 12.5 8.4 62 3.7 SSE 15 19 8 10 1027.3 1027.3 0.0
13/07:30pm 16.0 12.6 10.7 71 2.8 SSE 19 22 10 12 1026.9 1026.9 0.0
13/07:00pm 16.7 13.2 11.0 69 3.1 SSE 20 26 11 14 1026.5 1026.5 0.0
13/06:30pm 17.2 14.2 10.8 66 3.4 SE 17 24 9 13 1026.2 1026.2 0.0
13/06:00pm 18.0 14.4 10.6 62 3.9 SE 20 26 11 14 1026.0 1026.0 0.0
13/05:30pm 19.2 14.9 9.4 53 5.1 SE 22 28 12 15 1025.6 1025.6 0.0
13/05:00pm 21.5 17.0 8.4 43 6.9 SE 22 28 12 15 1025.4 1025.4 0.0
13/04:30pm 22.0 16.0 8.5 42 7.1 SSE 30 39 16 21 1025.2 1025.2 0.0
13/04:00pm 21.6 15.8 8.1 42 7.1 SE 28 35 15 19 1025.0 1025.0 0.0
13/03:30pm 21.2 17.0 9.8 48 6.1 SE 22 30 12 16 1025.0 1025.0 0.0
13/03:00pm 21.0 15.7 11.1 53 5.4 SE 30 37 16 20 1025.0 1025.0 0.0
13/02:30pm 21.7 15.7 10.2 48 6.2 SE 32 41 17 22 1025.0 1025.0 0.0
13/02:00pm 22.1 15.8 8.9 43 7.0 SE 32 39 17 21 1025.2 1025.2 0.0
13/01:30pm 23.3 18.2 9.3 41 7.5 SE 26 35 14 19 1025.3 1025.3 0.0
13/01:00pm 20.9 15.4 10.4 51 5.7 SE 30 35 16 19 1025.4 1025.4 0.0
13/12:30pm 19.8 14.8 11.0 57 4.8 SE 28 37 15 20 1025.7 1025.7 0.0
13/12:00pm 19.2 14.5 12.0 63 4.0 SE 28 37 15 20 1025.9 1025.9 0.0
13/11:30am 18.6 13.5 11.9 65 3.7 SE 30 39 16 21 1026.3 1026.3 0.0
13/11:00am 17.5 12.8 12.0 70 3.0 SE 28 37 15 20 1026.2 1026.2 0.0
13/10:30am 17.1 12.4 12.0 72 2.8 SE 28 39 15 21 1026.3 1026.3 0.0
13/10:00am 16.6 11.8 11.7 73 2.7 SE 28 37 15 20 1026.5 1026.5 0.0

Other formats

Comma delimited format used in spreadsheet applications
http://www.bom.gov.au/fwo/IDS60801/IDS60801.95666.axf

JavaScript Object Notation format (JSON) in row-major order
http://www.bom.gov.au/fwo/IDS60801/IDS60801.95666.json

Data quality

Most of these data are generated automatically and are frequently updated. Quality checks on data are not normally performed. It is possible for incorrect values to appear. Refer to information at About Latest Weather Observations and please check the disclaimer before using these data.